Time;durP1;ratioP1;P1;durP2;ratioP2;P2;SDS_P1;SDS_P2;PMS_P1;PMS_P2;Temp;Humidity;BMP_temperature;BMP_pressure;BME280_temperature;BME280_humidity;BME280_pressure;Samples;Min_cycle;Max_cycle;Signal;HPM_P1;HPM_P2
2023/04/26 00:01:21;;;;;;;5.53;0.90;;;3.80;99.90;;;;;;5076997;28;20025;-79
2023/04/26 00:03:47;;;;;;;5.68;0.55;;;3.70;99.90;;;;;;5048397;28;20037;-79
2023/04/26 00:06:13;;;;;;;9.27;2.00;;;3.70;99.90;;;;;;5056841;28;20029;-79
2023/04/26 00:08:39;;;;;;;4.68;0.95;;;3.60;99.90;;;;;;5039176;28;20497;-78
2023/04/26 00:11:05;;;;;;;5.75;1.48;;;3.60;99.90;;;;;;5038952;28;20021;-79
2023/04/26 00:13:31;;;;;;;2.70;0.80;;;3.60;99.90;;;;;;5039235;28;20021;-78
2023/04/26 00:15:59;;;;;;;3.90;0.93;;;3.40;99.90;;;;;;5056929;28;20514;-79
2023/04/26 00:18:25;;;;;;;5.38;1.15;;;3.50;99.90;;;;;;5058245;28;20037;-78
2023/04/26 00:20:50;;;;;;;6.60;0.90;;;3.40;99.90;;;;;;5038828;28;20028;-79
2023/04/26 00:23:17;;;;;;;6.35;0.82;;;3.40;99.90;;;;;;5038994;28;20475;-78
2023/04/26 00:25:42;;;;;;;3.83;0.63;;;3.40;99.90;;;;;;5056632;28;20071;-79
2023/04/26 00:28:09;;;;;;;6.30;1.10;;;;;;;;;;5275851;22;20052;-79
2023/04/26 00:30:40;;;;;;;3.72;0.80;;;;;;;;;;5079292;28;20020;-78
2023/04/26 00:33:11;;;;;;;6.65;0.85;;;;;;;;;;5095520;28;20031;-79
2023/04/26 00:35:37;;;;;;;2.90;0.77;;;;;;;;;;5096299;28;20028;-79
2023/04/26 00:38:03;;;;;;;7.57;0.95;;;;;;;;;;5096315;28;20024;-78
2023/04/26 00:40:29;;;;;;;6.35;0.80;;;3.00;99.90;;;;;;5078389;28;20051;-78
2023/04/26 00:42:58;;;;;;;12.77;1.83;;;3.00;99.90;;;;;;5096401;28;20056;-79
2023/04/26 00:45:31;;;;;;;3.58;0.88;;;3.00;99.90;;;;;;5077821;28;20020;-78
2023/04/26 00:48:00;;;;;;;5.03;0.90;;;3.00;99.90;;;;;;5076595;28;20221;-78
2023/04/26 00:50:28;;;;;;;4.50;0.90;;;2.90;99.90;;;;;;5078662;28;20016;-78
2023/04/26 00:52:55;;;;;;;7.80;1.48;;;2.90;99.90;;;;;;5078245;28;20020;-79
2023/04/26 00:55:22;;;;;;;6.03;1.10;;;2.90;99.90;;;;;;5096243;28;20020;-78
2023/04/26 00:57:47;;;;;;;5.93;0.95;;;2.80;99.90;;;;;;5096003;28;20020;-78
2023/04/26 01:00:15;;;;;;;5.75;1.00;;;2.80;99.90;;;;;;5083594;28;20391;-79
2023/04/26 01:02:41;;;;;;;7.85;1.10;;;;;;;;;;5075965;28;20017;-79
2023/04/26 01:05:08;;;;;;;3.25;0.95;;;2.70;99.90;;;;;;5076030;28;20028;-78
2023/04/26 01:07:35;;;;;;;4.20;0.63;;;2.70;99.90;;;;;;5057458;28;20368;-78
2023/04/26 01:10:04;;;;;;;7.88;1.15;;;2.60;99.90;;;;;;5057524;28;20082;-79
2023/04/26 01:12:31;;;;;;;5.18;1.17;;;2.60;99.90;;;;;;5057545;28;20074;-79
2023/04/26 01:14:59;;;;;;;8.13;0.85;;;2.50;99.90;;;;;;5057306;28;20475;-79
2023/04/26 01:17:25;;;;;;;7.82;1.98;;;2.50;99.90;;;;;;5056926;28;20029;-79
2023/04/26 01:19:53;;;;;;;6.07;1.50;;;2.50;99.90;;;;;;5058493;28;20513;-79
2023/04/26 01:22:20;;;;;;;4.47;0.77;;;2.50;99.90;;;;;;5075363;28;20376;-78
2023/04/26 01:24:49;;;;;;;4.25;1.27;;;2.40;99.90;;;;;;5057424;28;20115;-78
2023/04/26 01:27:15;;;;;;;5.63;1.13;;;2.40;99.90;;;;;;5078762;28;20383;-78
2023/04/26 01:29:42;;;;;;;7.18;1.45;;;2.50;99.90;;;;;;5095606;28;20032;-78
2023/04/26 01:32:07;;;;;;;9.45;2.30;;;2.40;99.90;;;;;;5077387;28;20508;-79
2023/04/26 01:34:33;;;;;;;11.93;1.27;;;2.40;99.90;;;;;;5077370;28;20048;-78
2023/04/26 01:37:00;;;;;;;7.85;2.10;;;2.40;99.90;;;;;;5077336;28;20094;-79
2023/04/26 01:39:26;;;;;;;6.07;1.25;;;2.90;99.90;;;;;;5095547;28;20017;-78
2023/04/26 01:41:52;;;;;;;5.70;1.55;;;2.30;99.90;;;;;;5086806;28;20082;-78
2023/04/26 01:44:18;;;;;;;5.57;1.65;;;2.30;99.90;;;;;;5074725;28;20547;-78
2023/04/26 01:46:44;;;;;;;7.72;1.70;;;2.30;99.90;;;;;;5056930;28;20044;-78
2023/04/26 01:49:09;;;;;;;9.10;2.00;;;2.30;99.90;;;;;;5075033;28;20044;-78
2023/04/26 01:51:38;;;;;;;5.50;1.13;;;2.20;99.90;;;;;;5056637;28;20032;-79
2023/04/26 01:54:03;;;;;;;3.42;1.17;;;2.20;99.90;;;;;;5056616;28;20483;-78
2023/04/26 01:56:30;;;;;;;7.60;2.35;;;;;;;;;;5088581;28;20028;-79
2023/04/26 01:58:56;;;;;;;9.05;1.55;;;2.10;99.90;;;;;;5076875;28;20055;-79
2023/04/26 02:01:21;;;;;;;8.82;2.20;;;2.00;99.90;;;;;;5077035;28;20062;-79
2023/04/26 02:03:48;;;;;;;8.73;1.50;;;;;;;;;;5095113;28;20069;-78
2023/04/26 02:06:13;;;;;;;9.82;1.65;;;2.00;99.90;;;;;;5094841;28;20099;-78
2023/04/26 02:08:39;;;;;;;6.35;1.27;;;2.00;99.90;;;;;;5076521;28;20059;-79
2023/04/26 02:11:05;;;;;;;6.78;1.20;;;2.00;99.90;;;;;;5094471;28;20024;-77
2023/04/26 02:13:31;;;;;;;3.47;1.17;;;;;;;;;;5076421;28;20028;-79
2023/04/26 02:15:58;;;;;;;4.00;1.20;;;2.00;99.90;;;;;;5094599;28;20023;-78
2023/04/26 02:18:24;;;;;;;6.72;1.67;;;1.90;99.90;;;;;;5075090;28;20020;-78
2023/04/26 02:20:49;;;;;;;5.30;1.45;;;1.90;99.90;;;;;;5076214;28;20502;-79
2023/04/26 02:23:15;;;;;;;3.70;1.13;;;2.00;99.90;;;;;;5076316;28;20077;-79
2023/04/26 02:25:43;;;;;;;5.70;1.17;;;1.90;99.90;;;;;;5094445;28;20032;-78
2023/04/26 02:28:09;;;;;;;5.80;1.52;;;1.90;99.90;;;;;;5093809;28;20053;-78
2023/04/26 02:30:35;;;;;;;5.93;1.80;;;1.90;99.90;;;;;;5076169;28;20140;-79
2023/04/26 02:33:01;;;;;;;4.28;1.08;;;;;;;;;;5076209;28;20027;-79
2023/04/26 02:35:27;;;;;;;6.43;0.70;;;1.90;99.90;;;;;;5094374;28;20024;-79
2023/04/26 02:37:53;;;;;;;5.95;1.60;;;1.80;99.90;;;;;;5076433;28;20027;-78
2023/04/26 02:40:19;;;;;;;2.78;0.73;;;1.80;99.90;;;;;;5075958;28;20043;-79
2023/04/26 02:42:44;;;;;;;4.25;1.17;;;1.80;99.90;;;;;;5094280;28;20020;-79
2023/04/26 02:45:10;;;;;;;3.97;1.25;;;1.70;99.90;;;;;;5072110;28;20024;-78
2023/04/26 02:47:37;;;;;;;5.38;1.15;;;1.70;99.90;;;;;;5056092;28;20046;-79
2023/04/26 02:50:03;;;;;;;4.90;1.52;;;1.60;99.90;;;;;;5073985;28;20021;-79
2023/04/26 02:52:29;;;;;;;3.83;1.00;;;1.60;99.90;;;;;;5074059;28;20103;-79
2023/04/26 02:54:55;;;;;;;4.32;1.00;;;1.60;99.90;;;;;;5055427;28;20079;-79
2023/04/26 02:57:20;;;;;;;5.00;1.48;;;1.60;99.90;;;;;;5073650;28;20035;-79
2023/04/26 02:59:46;;;;;;;5.00;1.30;;;1.60;99.90;;;;;;5063867;28;20081;-79
2023/04/26 03:02:11;;;;;;;7.18;1.88;;;1.60;99.90;;;;;;5075563;28;20463;-78
2023/04/26 03:04:38;;;;;;;5.72;1.65;;;1.60;99.90;;;;;;5094254;28;20390;-79
2023/04/26 03:07:04;;;;;;;4.18;1.10;;;1.60;99.90;;;;;;5075935;28;20099;-79
2023/04/26 03:09:30;;;;;;;5.53;1.23;;;1.50;99.90;;;;;;5076078;28;20111;-79
2023/04/26 03:11:56;;;;;;;5.03;0.88;;;1.40;99.90;;;;;;5094134;28;20444;-79
2023/04/26 03:14:21;;;;;;;5.38;1.33;;;1.40;99.90;;;;;;5070646;28;20032;-79
2023/04/26 03:16:47;;;;;;;7.40;1.40;;;1.40;99.90;;;;;;5076013;28;20059;-78
2023/04/26 03:19:13;;;;;;;8.15;2.03;;;1.30;99.90;;;;;;5075947;28;20110;-78
2023/04/26 03:21:38;;;;;;;9.07;1.30;;;1.30;99.90;;;;;;5094270;28;20031;-78
2023/04/26 03:24:07;;;;;;;4.20;1.10;;;1.20;99.90;;;;;;5075701;28;20476;-79
2023/04/26 03:26:33;;;;;;;7.20;1.23;;;1.30;99.90;;;;;;5094101;28;20036;-79
2023/04/26 03:28:58;;;;;;;3.22;0.90;;;1.20;99.90;;;;;;5057193;28;20463;-79
2023/04/26 03:31:24;;;;;;;7.57;1.30;;;1.30;99.90;;;;;;5055674;28;20016;-79
2023/04/26 03:33:50;;;;;;;6.63;0.98;;;1.20;99.90;;;;;;5055403;28;20037;-79
2023/04/26 03:36:16;;;;;;;7.30;1.40;;;2.20;99.90;;;;;;5073260;28;20051;-78
2023/04/26 03:38:42;;;;;;;4.47;1.05;;;1.10;99.90;;;;;;5055429;28;20020;-79
2023/04/26 03:41:07;;;;;;;4.00;1.25;;;1.10;99.90;;;;;;5058429;28;20025;-79
2023/04/26 03:43:33;;;;;;;6.10;1.35;;;1.10;99.90;;;;;;5088955;28;20528;-78
2023/04/26 03:46:03;;;;;;;7.50;1.00;;;1.10;99.90;;;;;;5094339;28;20386;-79
2023/04/26 03:48:29;;;;;;;5.57;1.40;;;;;;;;;;5093831;28;20492;-79
2023/04/26 03:50:54;;;;;;;7.47;1.27;;;1.00;99.90;;;;;;5075788;28;20115;-79
2023/04/26 03:53:20;;;;;;;6.68;1.73;;;1.00;99.90;;;;;;5093822;28;20020;-80
2023/04/26 03:55:45;;;;;;;5.30;1.25;;;1.00;99.90;;;;;;5075130;28;20020;-79
2023/04/26 03:58:11;;;;;;;4.45;1.27;;;1.00;99.90;;;;;;5075531;28;20112;-78
2023/04/26 04:00:37;;;;;;;6.75;1.63;;;1.00;99.90;;;;;;5058988;28;20046;-78
2023/04/26 04:03:03;;;;;;;5.07;1.38;;;1.00;99.90;;;;;;5073271;28;20029;-78
2023/04/26 04:05:29;;;;;;;10.23;1.45;;;1.00;99.90;;;;;;5055366;28;20017;-78
2023/04/26 04:07:55;;;;;;;7.45;1.25;;;;;;;;;;5058908;28;20021;-78
2023/04/26 04:10:24;;;;;;;7.15;1.02;;;0.90;99.90;;;;;;5058296;28;20055;-79
2023/04/26 04:12:51;;;;;;;4.90;1.48;;;1.00;99.90;;;;;;5060653;28;20103;-79
2023/04/26 04:15:17;;;;;;;7.80;2.40;;;;;;;;;;5078233;28;20027;-78
2023/04/26 04:17:43;;;;;;;5.38;1.77;;;1.10;99.90;;;;;;5068611;28;20020;-79
2023/04/26 04:20:09;;;;;;;5.47;1.85;;;1.10;99.90;;;;;;5098614;28;20026;-79
2023/04/26 04:22:35;;;;;;;4.97;1.10;;;1.10;99.90;;;;;;5099052;28;20031;-78
2023/04/26 04:25:03;;;;;;;6.13;1.23;;;1.10;99.90;;;;;;5098170;28;20463;-79
2023/04/26 04:27:29;;;;;;;10.50;1.43;;;1.10;99.90;;;;;;5079777;28;20048;-78
2023/04/26 04:29:54;;;;;;;8.50;1.65;;;1.10;99.90;;;;;;5079689;28;20269;-78
2023/04/26 04:32:24;;;;;;;5.15;1.25;;;1.10;99.90;;;;;;5071989;28;20069;-79
2023/04/26 04:34:50;;;;;;;9.00;2.17;;;1.10;99.90;;;;;;5059498;28;20020;-79
2023/04/26 04:37:17;;;;;;;5.47;1.48;;;1.10;99.90;;;;;;5059290;28;20024;-78
2023/04/26 04:39:42;;;;;;;6.78;1.63;;;1.10;99.90;;;;;;5077607;28;20103;-77
2023/04/26 04:42:09;;;;;;;6.15;1.80;;;1.10;99.90;;;;;;5060119;28;20052;-77
2023/04/26 04:44:35;;;;;;;5.70;1.52;;;2.20;99.90;;;;;;5059136;28;20078;-79
2023/04/26 04:47:01;;;;;;;7.07;1.42;;;1.10;99.90;;;;;;5085324;28;20115;-79
2023/04/26 04:49:27;;;;;;;7.88;1.55;;;1.10;99.90;;;;;;5079599;28;20059;-80
2023/04/26 04:51:53;;;;;;;8.93;1.75;;;1.30;99.90;;;;;;5079846;28;20106;-79
2023/04/26 04:54:19;;;;;;;8.15;1.77;;;1.30;99.90;;;;;;5097850;28;20059;-79
2023/04/26 04:56:44;;;;;;;12.00;2.60;;;1.40;99.90;;;;;;5079378;28;20024;-78
2023/04/26 04:59:11;;;;;;;7.05;2.20;;;1.40;99.90;;;;;;5079224;28;20028;-78
2023/04/26 05:01:37;;;;;;;8.05;2.28;;;1.50;99.90;;;;;;5089940;28;20089;-78
2023/04/26 05:04:03;;;;;;;9.60;2.10;;;1.70;99.90;;;;;;5076322;28;20075;-79
2023/04/26 05:06:32;;;;;;;8.68;1.73;;;1.80;99.90;;;;;;5058995;28;20017;-78
2023/04/26 05:08:58;;;;;;;4.95;1.75;;;1.90;99.90;;;;;;5059163;28;20024;-78
2023/04/26 05:11:24;;;;;;;7.43;2.53;;;2.20;99.90;;;;;;5076999;28;20091;-78
2023/04/26 05:13:49;;;;;;;9.60;1.98;;;2.20;99.90;;;;;;5059257;28;20545;-78
2023/04/26 05:16:15;;;;;;;5.28;2.15;;;2.40;99.90;;;;;;5059932;28;20471;-78
2023/04/26 05:18:42;;;;;;;8.85;2.20;;;2.60;99.90;;;;;;5076703;28;20036;-78
2023/04/26 05:21:08;;;;;;;12.45;2.65;;;3.10;99.90;;;;;;5059103;28;20021;-77
2023/04/26 05:23:33;;;;;;;10.90;2.45;;;3.30;99.90;;;;;;5076471;28;20035;-78
2023/04/26 05:26:06;;;;;;;9.82;2.47;;;3.40;99.90;;;;;;5076518;28;20096;-80
2023/04/26 05:28:32;;;;;;;7.82;2.42;;;3.50;99.90;;;;;;5076799;28;20032;-80
2023/04/26 05:30:58;;;;;;;8.55;3.72;;;3.70;99.90;;;;;;5058724;28;20020;-79
2023/04/26 05:33:24;;;;;;;11.18;2.70;;;4.00;99.90;;;;;;5060369;28;20119;-80
2023/04/26 05:35:51;;;;;;;16.17;3.67;;;4.30;99.90;;;;;;5058740;28;20025;-78
2023/04/26 05:38:17;;;;;;;8.18;2.47;;;;;;;;;;5076617;28;20024;-78
2023/04/26 05:40:43;;;;;;;8.57;3.15;;;4.60;99.90;;;;;;5077256;28;20379;-79
2023/04/26 05:43:08;;;;;;;7.80;2.20;;;4.80;99.90;;;;;;5059051;28;20042;-77
2023/04/26 05:45:34;;;;;;;7.25;1.48;;;5.00;99.90;;;;;;5057946;28;20021;-79
2023/04/26 05:48:00;;;;;;;9.52;1.20;;;5.30;99.90;;;;;;5059189;28;20109;-79
2023/04/26 05:50:25;;;;;;;6.82;1.60;;;5.50;99.90;;;;;;5058882;28;20021;-79
2023/04/26 05:52:51;;;;;;;10.02;0.90;;;5.70;99.90;;;;;;5076566;28;20060;-79
2023/04/26 05:55:18;;;;;;;5.57;0.75;;;6.00;99.90;;;;;;5075805;28;20028;-80
2023/04/26 05:57:44;;;;;;;2.10;0.65;;;6.20;99.90;;;;;;5057909;28;20021;-78
2023/04/26 06:00:11;;;;;;;5.60;1.02;;;6.40;99.90;;;;;;5059182;28;20035;-78
2023/04/26 06:02:36;;;;;;;7.65;2.03;;;6.50;99.90;;;;;;5080088;28;20012;-77
2023/04/26 06:05:03;;;;;;;4.05;0.60;;;6.60;99.90;;;;;;5075901;28;20038;-78
2023/04/26 06:07:29;;;;;;;4.13;1.38;;;6.60;99.90;;;;;;5058033;28;20408;-78
2023/04/26 06:09:55;;;;;;;5.65;0.73;;;6.50;99.90;;;;;;5075936;28;20012;-78
2023/04/26 06:12:20;;;;;;;3.10;0.40;;;6.50;99.90;;;;;;5058574;28;20016;-79
2023/04/26 06:14:46;;;;;;;4.55;0.30;;;6.40;99.90;;;;;;5058239;28;20444;-78
2023/04/26 06:17:12;;;;;;;3.13;0.40;;;6.40;99.90;;;;;;5063054;28;20028;-78
2023/04/26 06:19:37;;;;;;;2.90;0.70;;;6.30;99.90;;;;;;5077959;28;20107;-78
2023/04/26 06:22:03;;;;;;;3.85;0.30;;;6.30;99.90;;;;;;5077090;28;20406;-78
2023/04/26 06:24:31;;;;;;;5.20;0.30;;;6.50;99.90;;;;;;5077893;28;20510;-77
2023/04/26 06:26:57;;;;;;;6.68;0.57;;;;;;;;;;5096422;28;20039;-77
2023/04/26 06:29:23;;;;;;;10.02;0.43;;;6.70;99.90;;;;;;5095329;28;20024;-77
2023/04/26 06:31:49;;;;;;;4.78;0.60;;;6.90;99.90;;;;;;5088267;28;20025;-78
2023/04/26 06:34:14;;;;;;;1.40;0.10;;;6.90;99.90;;;;;;5081224;28;20024;-78
2023/04/26 06:36:40;;;;;;;2.85;0.50;;;;;;;;;;5078379;28;20020;-79
2023/04/26 06:39:06;;;;;;;2.90;0.30;;;7.00;99.90;;;;;;5094813;28;20055;-78
2023/04/26 06:41:32;;;;;;;5.55;0.25;;;6.90;99.90;;;;;;5094817;28;20023;-78
2023/04/26 06:43:57;;;;;;;7.28;0.98;;;7.00;99.90;;;;;;5077152;28;20028;-77
2023/04/26 06:46:23;;;;;;;3.33;0.40;;;7.10;99.90;;;;;;5064345;28;20028;-78
2023/04/26 06:48:51;;;;;;;5.53;0.52;;;7.20;99.90;;;;;;5074658;28;20050;-77
2023/04/26 06:51:17;;;;;;;3.70;0.20;;;7.20;99.90;;;;;;5074836;28;20391;-78
2023/04/26 06:53:42;;;;;;;0.88;0.20;;;8.40;99.90;;;;;;5057064;28;20750;-78
2023/04/26 06:56:08;;;;;;;4.10;0.22;;;7.50;99.90;;;;;;5074709;28;20028;-78
2023/04/26 06:58:33;;;;;;;3.35;0.40;;;7.50;99.90;;;;;;5056982;28;20023;-78
2023/04/26 07:01:00;;;;;;;7.65;1.15;;;7.70;99.90;;;;;;5080414;28;20032;-78
2023/04/26 07:03:25;;;;;;;2.90;0.57;;;7.70;99.90;;;;;;5076675;28;20016;-77
2023/04/26 07:05:51;;;;;;;2.25;0.30;;;8.00;99.90;;;;;;5094227;28;20106;-78
2023/04/26 07:08:17;;;;;;;3.17;0.52;;;7.60;99.90;;;;;;5076016;28;20031;-78
2023/04/26 07:10:42;;;;;;;2.50;0.30;;;7.60;99.90;;;;;;5094841;28;20492;-78
2023/04/26 07:13:08;;;;;;;5.20;0.32;;;7.70;99.90;;;;;;5077200;28;20110;-77
2023/04/26 07:15:35;;;;;;;7.07;1.35;;;7.80;99.90;;;;;;5094962;28;20099;-77
2023/04/26 07:18:00;;;;;;;2.17;0.63;;;8.00;99.90;;;;;;5095289;28;20028;-77
2023/04/26 07:20:26;;;;;;;2.95;0.20;;;;;;;;;;5095158;28;20427;-77
2023/04/26 07:22:52;;;;;;;1.50;0.20;;;8.20;99.90;;;;;;5095791;28;20113;-76
2023/04/26 07:25:18;;;;;;;3.35;0.50;;;8.40;99.90;;;;;;5095561;28;20037;-78
2023/04/26 07:27:43;;;;;;;3.65;0.10;;;8.50;99.90;;;;;;5076800;28;20028;-77
2023/04/26 07:30:09;;;;;;;4.88;0.00;;;8.60;99.90;;;;;;5089609;28;20024;-77
2023/04/26 07:32:35;;;;;;;2.05;0.10;;;8.60;99.90;;;;;;5075382;28;20025;-77
2023/04/26 07:35:06;;;;;;;4.25;1.00;;;8.70;99.90;;;;;;5057348;28;20024;-78
2023/04/26 07:37:31;;;;;;;4.53;0.38;;;9.00;99.90;;;;;;5056859;28;20070;-77
2023/04/26 07:39:57;;;;;;;3.25;0.20;;;9.00;99.90;;;;;;5056706;28;20024;-78
2023/04/26 07:42:23;;;;;;;2.13;0.10;;;10.10;99.90;;;;;;5077442;28;20032;-78
2023/04/26 07:44:48;;;;;;;0.25;0.00;;;9.00;99.90;;;;;;5061490;28;20037;-77
2023/04/26 07:47:14;;;;;;;4.07;0.17;;;9.00;99.90;;;;;;5078866;28;20078;-77
2023/04/26 07:49:40;;;;;;;3.10;1.20;;;8.20;99.90;;;;;;5079173;28;20031;-77
2023/04/26 07:52:07;;;;;;;1.88;0.00;;;9.10;99.90;;;;;;5061801;28;20043;-78
2023/04/26 07:54:33;;;;;;;4.03;0.90;;;9.30;99.90;;;;;;5061126;28;20025;-77
2023/04/26 07:56:58;;;;;;;0.75;0.00;;;9.40;99.90;;;;;;5060774;28;20082;-77
2023/04/26 07:59:25;;;;;;;3.53;0.65;;;9.40;99.90;;;;;;5091486;28;20491;-78
2023/04/26 08:01:51;;;;;;;3.25;0.00;;;9.40;99.90;;;;;;5099635;28;20020;-78
2023/04/26 08:04:19;;;;;;;2.97;0.00;;;9.50;99.90;;;;;;5067688;28;20116;-78
2023/04/26 08:06:47;;;;;;;4.03;0.65;;;9.40;99.90;;;;;;5060315;28;20017;-79
2023/04/26 08:09:12;;;;;;;3.13;0.50;;;9.40;99.90;;;;;;5079153;28;20021;-78
2023/04/26 08:11:39;;;;;;;1.67;0.20;;;10.10;99.90;;;;;;5060558;28;20016;-78
2023/04/26 08:14:05;;;;;;;0.65;0.00;;;9.40;99.90;;;;;;5079006;28;20024;-78
2023/04/26 08:16:30;;;;;;;3.55;0.00;;;9.30;99.90;;;;;;5060088;28;20016;-77
2023/04/26 08:19:01;;;;;;;5.10;0.20;;;9.20;99.90;;;;;;5095237;28;20031;-78
2023/04/26 08:21:27;;;;;;;3.35;0.47;;;9.10;99.90;;;;;;5099270;28;20024;-78
2023/04/26 08:23:52;;;;;;;2.63;0.38;;;9.10;99.90;;;;;;5098954;28;20046;-78
2023/04/26 08:26:18;;;;;;;5.32;0.35;;;8.90;99.90;;;;;;5098864;28;20048;-77
2023/04/26 08:28:43;;;;;;;10.38;0.65;;;8.80;99.90;;;;;;5098722;28;20024;-77
2023/04/26 08:31:09;;;;;;;12.05;0.57;;;8.60;99.90;;;;;;5083066;28;20091;-77
2023/04/26 08:33:35;;;;;;;5.85;0.10;;;8.50;99.90;;;;;;5061068;28;20146;-77
2023/04/26 08:36:00;;;;;;;3.17;0.00;;;8.40;99.90;;;;;;5078349;28;20052;-77
2023/04/26 08:38:26;;;;;;;0.40;0.03;;;8.40;99.90;;;;;;5058986;28;20037;-78
2023/04/26 08:40:54;;;;;;;2.03;0.60;;;8.40;99.90;;;;;;5077006;28;20024;-78
2023/04/26 08:43:20;;;;;;;4.18;0.77;;;8.50;99.90;;;;;;5078062;28;20020;-78
2023/04/26 08:45:46;;;;;;;4.50;0.10;;;;;;;;;;5079129;28;20394;-78
2023/04/26 08:48:16;;;;;;;3.03;0.32;;;8.80;99.90;;;;;;5078824;28;20487;-78
2023/04/26 08:50:44;;;;;;;1.73;0.30;;;8.90;99.90;;;;;;5078856;28;20016;-78
2023/04/26 08:53:14;;;;;;;1.50;0.00;;;9.10;99.90;;;;;;5077107;28;20144;-79
2023/04/26 08:55:41;;;;;;;4.07;0.00;;;9.00;99.90;;;;;;5096430;28;20301;-79
2023/04/26 08:58:07;;;;;;;0.13;0.00;;;9.20;99.90;;;;;;5095922;28;20024;-79
2023/04/26 09:00:34;;;;;;;3.10;0.00;;;10.20;99.90;;;;;;5076635;28;20078;-79
2023/04/26 09:03:00;;;;;;;2.03;0.00;;;9.40;99.90;;;;;;5057761;28;20028;-79
2023/04/26 09:05:26;;;;;;;1.50;0.00;;;9.70;99.90;;;;;;5058311;28;20499;-79
2023/04/26 09:07:58;;;;;;;2.17;0.52;;;9.90;99.90;;;;;;5075676;28;20101;-78
2023/04/26 09:10:25;;;;;;;3.58;0.00;;;11.70;99.90;;;;;;5075801;28;20028;-79
2023/04/26 09:12:52;;;;;;;2.72;0.10;;;10.00;99.90;;;;;;5082589;28;20020;-78
2023/04/26 09:15:19;;;;;;;1.75;0.00;;;10.00;99.90;;;;;;5095862;28;20024;-79
2023/04/26 09:17:44;;;;;;;2.53;0.03;;;10.80;99.90;;;;;;5096679;28;20103;-79
2023/04/26 09:20:33;;;;;;;4.57;0.15;;;10.10;99.90;;;;;;5096996;28;20055;-79
2023/04/26 09:23:07;;;;;;;1.60;0.00;;;10.50;99.90;;;;;;5078244;28;20483;-79
2023/04/26 09:25:33;;;;;;;5.65;0.38;;;10.50;99.90;;;;;;5096580;28;20031;-79
2023/04/26 09:28:02;;;;;;;4.38;0.47;;;;;;;;;;5090831;28;20087;-79
2023/04/26 09:30:29;;;;;;;5.00;1.00;;;10.90;99.90;;;;;;5077532;28;20051;-79
2023/04/26 09:32:57;;;;;;;1.55;0.00;;;10.80;99.90;;;;;;5078456;28;20107;-79
2023/04/26 09:35:26;;;;;;;2.10;0.15;;;10.90;99.90;;;;;;5058761;28;20082;-79
2023/04/26 09:38:09;;;;;;;2.72;0.00;;;11.00;99.90;;;;;;5075712;28;20058;-78
2023/04/26 09:40:44;;;;;;;1.25;0.35;;;13.20;99.90;;;;;;5056649;28;20021;-77
2023/04/26 09:43:17;;;;;;;2.33;0.00;;;10.70;98.90;;;;;;5074545;28;20025;-77
2023/04/26 09:45:48;;;;;;;4.30;0.00;;;10.70;99.20;;;;;;5056509;28;20059;-77
2023/04/26 09:48:17;;;;;;;2.00;0.00;;;10.60;99.90;;;;;;5056069;28;20024;-77
2023/04/26 09:50:47;;;;;;;6.63;0.00;;;10.70;99.90;;;;;;5057006;28;20107;-77
2023/04/26 09:53:30;;;;;;;3.25;0.10;;;10.90;99.90;;;;;;5074615;28;20039;-77
2023/04/26 09:56:05;;;;;;;2.78;0.22;;;10.40;99.50;;;;;;5056457;28;20484;-77
2023/04/26 09:58:31;;;;;;;1.02;0.10;;;10.20;99.90;;;;;;5074112;28;20017;-77
2023/04/26 10:00:57;;;;;;;1.73;0.10;;;10.80;99.90;;;;;;5056237;28;20021;-77
2023/04/26 10:03:23;;;;;;;3.38;0.50;;;9.90;99.90;;;;;;5079031;28;20024;-77
2023/04/26 10:05:49;;;;;;;7.20;0.00;;;9.80;99.90;;;;;;5076025;28;20540;-77
2023/04/26 10:08:15;;;;;;;1.42;0.30;;;9.70;99.90;;;;;;5094043;28;20043;-77
2023/04/26 10:10:41;;;;;;;0.70;0.03;;;9.60;99.90;;;;;;5076049;28;20061;-77
2023/04/26 10:13:07;;;;;;;14.95;0.45;;;9.50;99.90;;;;;;5075972;28;20028;-77
2023/04/26 10:15:34;;;;;;;3.92;0.10;;;9.90;99.90;;;;;;5076044;28;20368;-77
2023/04/26 10:17:59;;;;;;;3.15;0.10;;;9.30;99.90;;;;;;5075789;28;20069;-77
2023/04/26 10:20:28;;;;;;;1.35;0.10;;;9.20;99.90;;;;;;5093950;28;20486;-76
2023/04/26 10:23:00;;;;;;;1.70;0.10;;;9.10;99.90;;;;;;5075743;28;20486;-76
2023/04/26 10:25:41;;;;;;;1.23;0.00;;;8.90;99.90;;;;;;5075782;28;20020;-76
2023/04/26 10:28:07;;;;;;;2.17;0.80;;;8.80;99.90;;;;;;5093753;28;20441;-75
2023/04/26 10:30:56;;;;;;;4.20;0.20;;;8.80;99.90;;;;;;5075901;28;20475;-76
2023/04/26 10:33:22;;;;;;;;;;;8.70;99.90;;;;;;5094799;28;20086;-75
2023/04/26 10:36:08;;;;;;;2.28;0.00;;;8.60;99.90;;;;;;5093831;28;19911;-75
2023/04/26 10:38:36;;;;;;;0.57;0.10;;;8.60;99.90;;;;;;5093477;28;20055;-76
2023/04/26 10:41:31;;;;;;;1.33;0.00;;;8.50;99.90;;;;;;5076199;28;20036;-76
2023/04/26 10:44:00;;;;;;;1.70;0.08;;;8.50;99.90;;;;;;5092280;28;20039;-76
2023/04/26 10:46:33;;;;;;;1.55;0.28;;;8.60;99.90;;;;;;5094126;28;20383;-76
2023/04/26 10:49:01;;;;;;;0.93;0.00;;;8.70;99.90;;;;;;5093900;28;20447;-76
2023/04/26 10:51:27;;;;;;;0.60;0.00;;;8.80;99.90;;;;;;5094319;28;20023;-76
2023/04/26 10:53:52;;;;;;;3.58;0.20;;;8.80;99.90;;;;;;5075699;28;20028;-75
2023/04/26 10:56:27;;;;;;;1.98;0.10;;;8.90;99.90;;;;;;5093540;28;20024;-76
2023/04/26 10:59:10;;;;;;;0.82;0.00;;;9.10;99.90;;;;;;5075555;28;20076;-76
2023/04/26 11:01:36;;;;;;;1.48;0.00;;;9.40;99.90;;;;;;5075321;28;20030;-75
2023/04/26 11:04:10;;;;;;;3.25;0.32;;;9.70;99.90;;;;;;5075456;28;20122;-76
2023/04/26 11:06:56;;;;;;;2.17;0.10;;;9.70;99.90;;;;;;5093524;28;20025;-76
2023/04/26 11:09:40;;;;;;;3.65;0.65;;;9.90;99.90;;;;;;5093259;28;20024;-75
2023/04/26 11:12:07;;;;;;;2.50;0.08;;;9.90;99.90;;;;;;5093457;28;20020;-75
2023/04/26 11:14:34;;;;;;;2.28;0.40;;;10.10;99.90;;;;;;5075509;28;20380;-76
2023/04/26 11:17:03;;;;;;;2.00;0.25;;;10.40;99.90;;;;;;5096306;28;20028;-76
2023/04/26 11:19:29;;;;;;;1.88;0.40;;;10.40;99.90;;;;;;5079244;28;20108;-77
2023/04/26 11:21:55;;;;;;;3.20;0.08;;;10.50;99.90;;;;;;5097603;28;20074;-76
2023/04/26 11:24:27;;;;;;;4.78;0.10;;;10.40;99.90;;;;;;5097863;28;20028;-77
2023/04/26 11:26:53;;;;;;;1.15;0.00;;;11.00;99.90;;;;;;5079449;28;20016;-77
2023/04/26 11:29:20;;;;;;;1.10;0.10;;;11.10;99.90;;;;;;5091088;28;20073;-76
2023/04/26 11:31:56;;;;;;;3.13;0.10;;;11.90;99.20;;;;;;5076934;28;20020;-76
2023/04/26 11:34:38;;;;;;;1.42;0.00;;;12.80;98.90;;;;;;5059181;28;20028;-76
2023/04/26 11:37:07;;;;;;;0.05;0.05;;;13.70;96.60;;;;;;5076732;28;20027;-76
2023/04/26 11:39:34;;;;;;;2.17;0.00;;;14.00;85.00;;;;;;5059094;28;20043;-75
2023/04/26 11:42:11;;;;;;;1.58;0.08;;;14.40;83.10;;;;;;5058847;28;20129;-76
2023/04/26 11:44:37;;;;;;;0.90;0.00;;;13.50;80.50;;;;;;5076595;28;20047;-75
2023/04/26 11:47:05;;;;;;;4.47;0.10;;;13.30;83.40;;;;;;5092661;28;20024;-76
2023/04/26 11:49:32;;;;;;;1.38;0.00;;;13.00;83.60;;;;;;5076443;28;20020;-76
2023/04/26 11:51:58;;;;;;;0.93;0.28;;;12.70;83.60;;;;;;5076142;28;20053;-76
2023/04/26 11:54:30;;;;;;;2.00;0.68;;;12.20;91.10;;;;;;5076056;28;20028;-76
2023/04/26 11:57:11;;;;;;;3.00;0.35;;;12.50;92.10;;;;;;5076097;28;20100;-76
2023/04/26 11:59:37;;;;;;;0.35;0.00;;;12.50;92.00;;;;;;5058343;28;20025;-76
2023/04/26 12:02:05;;;;;;;3.80;0.20;;;12.50;91.80;;;;;;5079295;28;20031;-76
2023/04/26 12:04:31;;;;;;;2.08;0.03;;;12.50;89.70;;;;;;5096038;28;20109;-76
2023/04/26 12:06:57;;;;;;;1.45;0.00;;;12.40;90.70;;;;;;5096127;28;20116;-76
2023/04/26 12:09:26;;;;;;;3.55;0.00;;;12.40;91.20;;;;;;5096263;28;20020;-76
2023/04/26 12:11:59;;;;;;;0.85;0.10;;;12.60;91.30;;;;;;5077885;28;20494;-76
2023/04/26 12:14:40;;;;;;;4.22;0.00;;;12.60;91.40;;;;;;5077730;28;20082;-76
2023/04/26 12:17:06;;;;;;;3.17;0.00;;;12.40;88.80;;;;;;5077651;28;20019;-76
2023/04/26 12:19:37;;;;;;;2.13;0.63;;;12.80;86.80;;;;;;5096264;28;20104;-76
2023/04/26 12:22:07;;;;;;;5.88;0.45;;;12.10;90.70;;;;;;5077989;28;20042;-75
2023/04/26 12:24:35;;;;;;;1.25;0.00;;;12.20;92.90;;;;;;5077753;28;20438;-75
2023/04/26 12:27:01;;;;;;;2.75;0.22;;;12.20;91.30;;;;;;5095620;28;20082;-75
2023/04/26 12:29:29;;;;;;;6.55;0.22;;;12.20;91.70;;;;;;5095694;28;20027;-75
2023/04/26 12:31:55;;;;;;;2.53;0.25;;;12.40;92.70;;;;;;5095910;28;20498;-75
2023/04/26 12:34:21;;;;;;;2.90;0.13;;;12.60;92.90;;;;;;5077580;28;20024;-75
2023/04/26 12:36:46;;;;;;;1.35;0.05;;;13.00;91.70;;;;;;5095872;28;20024;-75
2023/04/26 12:39:14;;;;;;;0.95;0.00;;;13.20;91.80;;;;;;5077811;28;20113;-76
2023/04/26 12:41:40;;;;;;;1.40;0.38;;;13.20;92.00;;;;;;5095732;28;20495;-76
2023/04/26 12:44:07;;;;;;;4.05;0.30;;;13.90;90.30;;;;;;5095896;28;20095;-75
2023/04/26 12:46:34;;;;;;;1.77;0.00;;;13.90;90.30;;;;;;5077114;28;20557;-76
2023/04/26 12:49:00;;;;;;;0.77;0.00;;;14.10;90.40;;;;;;5075176;28;20013;-76
2023/04/26 12:51:25;;;;;;;1.23;0.00;;;14.20;88.10;;;;;;5057303;28;20066;-75
2023/04/26 12:53:51;;;;;;;1.20;0.05;;;14.10;84.00;;;;;;5075627;28;20039;-75
2023/04/26 12:56:17;;;;;;;0.75;0.00;;;13.80;80.70;;;;;;5057037;28;20025;-77
2023/04/26 12:58:43;;;;;;;0.55;0.00;;;13.60;81.40;;;;;;5057338;28;20464;-76
2023/04/26 13:01:09;;;;;;;0.80;0.10;;;13.40;82.20;;;;;;5074998;28;20020;-76